sensor_id;sensor_type;location;lat;lon;timestamp;pressure;altitude;pressure_sealevel;temperature;humidity
14383;BME280;7275;50.328;8.720;2023-11-21T00:01:40;99051.81;;;15.18;54.33
14383;BME280;7275;50.328;8.720;2023-11-21T00:04:08;99049.91;;;15.20;54.33
14383;BME280;7275;50.328;8.720;2023-11-21T00:06:36;99048.75;;;15.24;54.18
14383;BME280;7275;50.328;8.720;2023-11-21T00:09:03;99051.50;;;15.23;54.54
14383;BME280;7275;50.328;8.720;2023-11-21T00:11:32;99045.03;;;15.27;54.38
14383;BME280;7275;50.328;8.720;2023-11-21T00:14:00;99048.44;;;15.29;54.26
14383;BME280;7275;50.328;8.720;2023-11-21T00:16:29;99044.06;;;15.28;54.26
14383;BME280;7275;50.328;8.720;2023-11-21T00:18:56;99050.34;;;15.27;54.25
14383;BME280;7275;50.328;8.720;2023-11-21T00:21:24;99044.81;;;15.30;54.28
14383;BME280;7275;50.328;8.720;2023-11-21T00:23:51;99044.69;;;15.31;54.24
14383;BME280;7275;50.328;8.720;2023-11-21T00:26:19;99044.38;;;15.36;54.05
14383;BME280;7275;50.328;8.720;2023-11-21T00:28:48;99045.81;;;15.41;54.05
14383;BME280;7275;50.328;8.720;2023-11-21T00:31:16;99043.16;;;15.41;54.08
14383;BME280;7275;50.328;8.720;2023-11-21T00:33:44;99047.41;;;15.44;53.90
14383;BME280;7275;50.328;8.720;2023-11-21T00:36:11;99050.09;;;15.44;54.18
14383;BME280;7275;50.328;8.720;2023-11-21T00:38:39;99048.84;;;15.49;53.97
14383;BME280;7275;50.328;8.720;2023-11-21T00:41:07;99053.09;;;15.52;53.90
14383;BME280;7275;50.328;8.720;2023-11-21T00:43:34;99052.78;;;15.56;53.82
14383;BME280;7275;50.328;8.720;2023-11-21T00:46:05;99049.06;;;15.59;53.70
14383;BME280;7275;50.328;8.720;2023-11-21T00:48:34;99059.50;;;15.62;53.73
14383;BME280;7275;50.328;8.720;2023-11-21T00:51:02;99046.94;;;15.64;53.74
14383;BME280;7275;50.328;8.720;2023-11-21T00:53:29;99046.81;;;15.65;53.69
14383;BME280;7275;50.328;8.720;2023-11-21T00:55:57;99050.34;;;15.66;53.68
14383;BME280;7275;50.328;8.720;2023-11-21T00:58:24;99049.38;;;15.67;53.63
14383;BME280;7275;50.328;8.720;2023-11-21T01:00:52;99046.72;;;15.67;53.43
14383;BME280;7275;50.328;8.720;2023-11-21T01:03:21;99046.06;;;15.63;53.51
14383;BME280;7275;50.328;8.720;2023-11-21T01:05:49;99053.00;;;15.53;53.65
14383;BME280;7275;50.328;8.720;2023-11-21T01:08:16;99058.63;;;15.49;54.01
14383;BME280;7275;50.328;8.720;2023-11-21T01:10:43;99052.06;;;15.40;53.97
14383;BME280;7275;50.328;8.720;2023-11-21T01:13:12;99054.97;;;15.37;54.06
14383;BME280;7275;50.328;8.720;2023-11-21T01:15:41;99062.09;;;15.37;54.15
14383;BME280;7275;50.328;8.720;2023-11-21T01:18:09;99067.81;;;15.31;54.29
14383;BME280;7275;50.328;8.720;2023-11-21T01:20:37;99075.91;;;15.29;54.18
14383;BME280;7275;50.328;8.720;2023-11-21T01:23:06;99072.59;;;15.26;54.52
14383;BME280;7275;50.328;8.720;2023-11-21T01:25:33;99083.13;;;15.27;54.55
14383;BME280;7275;50.328;8.720;2023-11-21T01:28:02;99076.00;;;15.28;54.28
14383;BME280;7275;50.328;8.720;2023-11-21T01:30:29;99081.03;;;15.32;54.43
14383;BME280;7275;50.328;8.720;2023-11-21T01:32:59;99082.53;;;15.36;54.37
14383;BME280;7275;50.328;8.720;2023-11-21T01:35:26;99091.00;;;15.43;54.23
14383;BME280;7275;50.328;8.720;2023-11-21T01:37:55;99086.25;;;15.48;54.25
14383;BME280;7275;50.328;8.720;2023-11-21T01:40:23;99087.50;;;15.55;54.24
14383;BME280;7275;50.328;8.720;2023-11-21T01:42:53;99083.59;;;15.60;54.06
14383;BME280;7275;50.328;8.720;2023-11-21T01:45:20;99079.66;;;15.66;54.03
14383;BME280;7275;50.328;8.720;2023-11-21T01:47:48;99086.38;;;15.71;54.04
14383;BME280;7275;50.328;8.720;2023-11-21T01:50:17;99084.38;;;15.75;53.93
14383;BME280;7275;50.328;8.720;2023-11-21T01:52:46;99086.81;;;15.78;53.97
14383;BME280;7275;50.328;8.720;2023-11-21T01:55:16;99085.66;;;15.82;53.76
14383;BME280;7275;50.328;8.720;2023-11-21T01:57:54;99088.19;;;15.83;53.70
14383;BME280;7275;50.328;8.720;2023-11-21T02:00:22;99092.69;;;15.83;53.83
14383;BME280;7275;50.328;8.720;2023-11-21T02:02:50;99091.72;;;15.84;53.74
14383;BME280;7275;50.328;8.720;2023-11-21T02:05:19;99087.38;;;15.83;53.81
14383;BME280;7275;50.328;8.720;2023-11-21T02:07:48;99098.84;;;15.83;53.65
14383;BME280;7275;50.328;8.720;2023-11-21T02:10:18;99093.66;;;15.82;53.70
14383;BME280;7275;50.328;8.720;2023-11-21T02:12:49;99104.19;;;15.83;53.50
14383;BME280;7275;50.328;8.720;2023-11-21T02:15:18;99102.28;;;15.85;53.47
14383;BME280;7275;50.328;8.720;2023-11-21T02:17:47;99109.03;;;15.91;53.52
14383;BME280;7275;50.328;8.720;2023-11-21T02:20:18;99104.31;;;15.94;53.61
14383;BME280;7275;50.328;8.720;2023-11-21T02:22:50;99093.47;;;15.97;53.24
14383;BME280;7275;50.328;8.720;2023-11-21T02:25:19;99102.09;;;16.01;53.29
14383;BME280;7275;50.328;8.720;2023-11-21T02:27:46;99100.28;;;16.02;53.12
14383;BME280;7275;50.328;8.720;2023-11-21T02:30:14;99109.78;;;16.06;53.36
14383;BME280;7275;50.328;8.720;2023-11-21T02:32:42;99099.97;;;16.06;53.18
14383;BME280;7275;50.328;8.720;2023-11-21T02:35:15;99099.13;;;16.06;53.03
14383;BME280;7275;50.328;8.720;2023-11-21T02:37:43;99095.78;;;16.02;53.18
14383;BME280;7275;50.328;8.720;2023-11-21T02:40:12;99104.94;;;15.98;53.26
14383;BME280;7275;50.328;8.720;2023-11-21T02:42:44;99096.44;;;15.93;53.59
14383;BME280;7275;50.328;8.720;2023-11-21T02:45:13;99099.84;;;15.95;53.37
14383;BME280;7275;50.328;8.720;2023-11-21T02:47:43;99104.31;;;15.94;53.19
14383;BME280;7275;50.328;8.720;2023-11-21T02:50:11;99099.84;;;15.95;53.18
14383;BME280;7275;50.328;8.720;2023-11-21T02:52:39;99102.72;;;15.92;53.27
14383;BME280;7275;50.328;8.720;2023-11-21T02:55:07;99101.88;;;15.91;53.36
14383;BME280;7275;50.328;8.720;2023-11-21T02:57:36;99102.81;;;15.90;53.28
14383;BME280;7275;50.328;8.720;2023-11-21T03:00:05;99103.69;;;15.91;53.34
14383;BME280;7275;50.328;8.720;2023-11-21T03:02:34;99101.03;;;15.91;53.24
14383;BME280;7275;50.328;8.720;2023-11-21T03:05:03;99103.69;;;15.91;53.33
14383;BME280;7275;50.328;8.720;2023-11-21T03:07:31;99099.31;;;15.90;53.10
14383;BME280;7275;50.328;8.720;2023-11-21T03:09:59;99102.06;;;15.88;53.24
14383;BME280;7275;50.328;8.720;2023-11-21T03:12:26;99103.25;;;15.84;53.10
14383;BME280;7275;50.328;8.720;2023-11-21T03:14:55;99104.41;;;15.80;53.17
14383;BME280;7275;50.328;8.720;2023-11-21T03:17:23;99113.28;;;15.81;53.20
14383;BME280;7275;50.328;8.720;2023-11-21T03:19:51;99108.03;;;15.79;53.27
14383;BME280;7275;50.328;8.720;2023-11-21T03:22:19;99112.53;;;15.79;53.30
14383;BME280;7275;50.328;8.720;2023-11-21T03:24:47;99114.09;;;15.81;53.30
14383;BME280;7275;50.328;8.720;2023-11-21T03:27:14;99119.44;;;15.81;53.40
14383;BME280;7275;50.328;8.720;2023-11-21T03:29:42;99124.69;;;15.83;53.39
14383;BME280;7275;50.328;8.720;2023-11-21T03:32:11;99127.25;;;15.84;53.07
14383;BME280;7275;50.328;8.720;2023-11-21T03:34:53;99129.91;;;15.84;53.35
14383;BME280;7275;50.328;8.720;2023-11-21T03:37:21;99133.44;;;15.85;53.34
14383;BME280;7275;50.328;8.720;2023-11-21T03:39:49;99143.97;;;15.86;53.26
14383;BME280;7275;50.328;8.720;2023-11-21T03:42:16;99143.22;;;15.84;53.31
14383;BME280;7275;50.328;8.720;2023-11-21T03:44:44;99134.38;;;15.84;53.32
14383;BME280;7275;50.328;8.720;2023-11-21T03:47:13;99135.66;;;15.78;53.32
14383;BME280;7275;50.328;8.720;2023-11-21T03:49:40;99140.88;;;15.80;53.46
14383;BME280;7275;50.328;8.720;2023-11-21T03:52:08;99147.38;;;15.76;53.52
14383;BME280;7275;50.328;8.720;2023-11-21T03:54:36;99148.41;;;15.73;53.51
14383;BME280;7275;50.328;8.720;2023-11-21T03:57:04;99140.66;;;15.70;53.55
14383;BME280;7275;50.328;8.720;2023-11-21T03:59:31;99140.72;;;15.69;53.63
14383;BME280;7275;50.328;8.720;2023-11-21T04:01:59;99149.81;;;15.66;53.92
14383;BME280;7275;50.328;8.720;2023-11-21T04:04:28;99139.97;;;15.67;53.79
14383;BME280;7275;50.328;8.720;2023-11-21T04:06:55;99151.50;;;15.67;53.73
14383;BME280;7275;50.328;8.720;2023-11-21T04:09:23;99149.69;;;15.68;53.56
14383;BME280;7275;50.328;8.720;2023-11-21T04:11:51;99150.56;;;15.68;53.88
14383;BME280;7275;50.328;8.720;2023-11-21T04:14:19;99153.28;;;15.67;53.80
14383;BME280;7275;50.328;8.720;2023-11-21T04:16:46;99149.69;;;15.68;53.89
14383;BME280;7275;50.328;8.720;2023-11-21T04:19:14;99156.63;;;15.70;53.81
14383;BME280;7275;50.328;8.720;2023-11-21T04:21:45;99160.06;;;15.72;53.81
14383;BME280;7275;50.328;8.720;2023-11-21T04:24:12;99163.47;;;15.74;53.64
14383;BME280;7275;50.328;8.720;2023-11-21T04:26:40;99158.03;;;15.76;53.75
14383;BME280;7275;50.328;8.720;2023-11-21T04:29:07;99171.34;;;15.76;53.80
14383;BME280;7275;50.328;8.720;2023-11-21T04:31:35;99169.53;;;15.76;53.84
14383;BME280;7275;50.328;8.720;2023-11-21T04:34:03;99165.81;;;15.79;53.59
14383;BME280;7275;50.328;8.720;2023-11-21T04:36:31;99164.41;;;15.73;53.81
14383;BME280;7275;50.328;8.720;2023-11-21T04:39:00;99175.06;;;15.73;53.60
14383;BME280;7275;50.328;8.720;2023-11-21T04:41:28;99182.31;;;15.71;53.71
14383;BME280;7275;50.328;8.720;2023-11-21T04:43:57;99191.28;;;15.70;53.58
14383;BME280;7275;50.328;8.720;2023-11-21T04:46:27;99181.56;;;15.69;53.51
14383;BME280;7275;50.328;8.720;2023-11-21T04:48:54;99193.94;;;15.70;53.67
14383;BME280;7275;50.328;8.720;2023-11-21T04:51:22;99195.00;;;15.68;53.61
14383;BME280;7275;50.328;8.720;2023-11-21T04:53:49;99195.84;;;15.68;53.67
14383;BME280;7275;50.328;8.720;2023-11-21T04:56:18;99204.69;;;15.69;53.69
14383;BME280;7275;50.328;8.720;2023-11-21T04:58:46;99202.97;;;15.68;53.55
14383;BME280;7275;50.328;8.720;2023-11-21T05:01:13;99203.84;;;15.68;53.65
14383;BME280;7275;50.328;8.720;2023-11-21T05:03:41;99203.84;;;15.68;53.59
14383;BME280;7275;50.328;8.720;2023-11-21T05:06:09;99208.31;;;15.68;53.72
14383;BME280;7275;50.328;8.720;2023-11-21T05:08:37;99208.31;;;15.68;53.58
14383;BME280;7275;50.328;8.720;2023-11-21T05:11:04;99213.53;;;15.69;53.56
14383;BME280;7275;50.328;8.720;2023-11-21T05:13:35;99212.78;;;15.67;53.45
14383;BME280;7275;50.328;8.720;2023-11-21T05:16:03;99218.22;;;15.66;53.74
14383;BME280;7275;50.328;8.720;2023-11-21T05:18:32;99221.00;;;15.64;53.62
14383;BME280;7275;50.328;8.720;2023-11-21T05:21:02;99226.31;;;15.64;53.47
14383;BME280;7275;50.328;8.720;2023-11-21T05:23:29;99230.91;;;15.62;53.65
14383;BME280;7275;50.328;8.720;2023-11-21T05:25:57;99240.81;;;15.60;53.45
14383;BME280;7275;50.328;8.720;2023-11-21T05:28:24;99240.81;;;15.60;53.36
14383;BME280;7275;50.328;8.720;2023-11-21T05:30:53;99240.13;;;15.57;53.60
14383;BME280;7275;50.328;8.720;2023-11-21T05:33:35;99243.09;;;15.52;53.74
14383;BME280;7275;50.328;8.720;2023-11-21T05:36:04;99243.19;;;15.51;53.71
14383;BME280;7275;50.328;8.720;2023-11-21T05:38:34;99253.94;;;15.49;53.82
14383;BME280;7275;50.328;8.720;2023-11-21T05:41:02;99257.78;;;15.45;53.87
14383;BME280;7275;50.328;8.720;2023-11-21T05:43:30;99254.25;;;15.45;53.81
14383;BME280;7275;50.328;8.720;2023-11-21T05:46:00;99263.16;;;15.44;53.83
14383;BME280;7275;50.328;8.720;2023-11-21T05:48:27;99272.13;;;15.43;53.94
14383;BME280;7275;50.328;8.720;2023-11-21T05:50:55;99272.28;;;15.40;53.99
14383;BME280;7275;50.328;8.720;2023-11-21T05:53:22;99266.94;;;15.40;53.81
14383;BME280;7275;50.328;8.720;2023-11-21T05:55:50;99269.72;;;15.38;53.72
14383;BME280;7275;50.328;8.720;2023-11-21T05:58:18;99271.75;;;15.35;53.76
14383;BME280;7275;50.328;8.720;2023-11-21T06:00:46;99271.84;;;15.33;53.76
14383;BME280;7275;50.328;8.720;2023-11-21T06:03:15;99274.78;;;15.29;53.77
14383;BME280;7275;50.328;8.720;2023-11-21T06:05:43;99279.34;;;15.27;53.84
14383;BME280;7275;50.328;8.720;2023-11-21T06:08:11;99282.19;;;15.23;53.76
14383;BME280;7275;50.328;8.720;2023-11-21T06:10:38;99279.00;;;15.18;53.85
14383;BME280;7275;50.328;8.720;2023-11-21T06:13:06;99285.44;;;15.14;53.85
14383;BME280;7275;50.328;8.720;2023-11-21T06:15:34;99293.63;;;15.11;53.87
14383;BME280;7275;50.328;8.720;2023-11-21T06:18:02;99290.19;;;15.09;53.79
14383;BME280;7275;50.328;8.720;2023-11-21T06:20:30;99307.31;;;15.05;53.69
14383;BME280;7275;50.328;8.720;2023-11-21T06:22:58;99310.16;;;15.02;53.87
14383;BME280;7275;50.328;8.720;2023-11-21T06:25:29;99313.03;;;14.99;53.78
14383;BME280;7275;50.328;8.720;2023-11-21T06:27:59;99316.81;;;14.95;53.93
14383;BME280;7275;50.328;8.720;2023-11-21T06:30:26;99323.09;;;14.94;53.83
14383;BME280;7275;50.328;8.720;2023-11-21T06:32:55;99317.97;;;14.91;53.99
14383;BME280;7275;50.328;8.720;2023-11-21T06:35:23;99321.44;;;14.92;53.87
14383;BME280;7275;50.328;8.720;2023-11-21T06:37:52;99330.41;;;14.91;53.90
14383;BME280;7275;50.328;8.720;2023-11-21T06:40:19;99328.00;;;14.86;54.01
14383;BME280;7275;50.328;8.720;2023-11-21T06:42:48;99328.19;;;14.83;53.85
14383;BME280;7275;50.328;8.720;2023-11-21T06:45:16;99338.84;;;14.83;53.93
14383;BME280;7275;50.328;8.720;2023-11-21T06:47:44;99332.56;;;14.84;53.97
14383;BME280;7275;50.328;8.720;2023-11-21T06:50:12;99339.59;;;14.85;53.90
14383;BME280;7275;50.328;8.720;2023-11-21T06:52:39;99338.75;;;14.85;53.45
14383;BME280;7275;50.328;8.720;2023-11-21T06:55:09;99349.59;;;14.82;53.97
14383;BME280;7275;50.328;8.720;2023-11-21T06:57:37;99352.34;;;14.80;53.91
14383;BME280;7275;50.328;8.720;2023-11-21T07:00:06;99359.47;;;14.80;53.98
14383;BME280;7275;50.328;8.720;2023-11-21T07:02:35;99359.47;;;14.80;54.02
14383;BME280;7275;50.328;8.720;2023-11-21T07:05:03;99355.09;;;14.79;53.91
14383;BME280;7275;50.328;8.720;2023-11-21T07:07:32;99365.91;;;14.76;54.05
14383;BME280;7275;50.328;8.720;2023-11-21T07:10:02;99365.91;;;14.76;54.00
14383;BME280;7275;50.328;8.720;2023-11-21T07:12:31;99370.47;;;14.74;53.97
14383;BME280;7275;50.328;8.720;2023-11-21T07:14:58;99376.66;;;14.74;54.07
14383;BME280;7275;50.328;8.720;2023-11-21T07:17:26;99383.78;;;14.74;53.93
14383;BME280;7275;50.328;8.720;2023-11-21T07:19:54;99385.41;;;14.76;53.93
14383;BME280;7275;50.328;8.720;2023-11-21T07:22:21;99392.53;;;14.76;53.97
14383;BME280;7275;50.328;8.720;2023-11-21T07:24:49;99387.97;;;14.78;53.86
14383;BME280;7275;50.328;8.720;2023-11-21T07:27:18;99397.69;;;14.79;54.08
14383;BME280;7275;50.328;8.720;2023-11-21T07:29:47;99404.59;;;14.81;53.93
14383;BME280;7275;50.328;8.720;2023-11-21T07:32:15;99402.53;;;14.86;53.95
14383;BME280;7275;50.328;8.720;2023-11-21T07:34:43;99403.31;;;14.88;53.80
14383;BME280;7275;50.328;8.720;2023-11-21T07:37:10;99415.69;;;14.89;53.92
14383;BME280;7275;50.328;8.720;2023-11-21T07:39:38;99415.47;;;14.92;53.99
14383;BME280;7275;50.328;8.720;2023-11-21T07:42:08;99414.44;;;14.95;53.92
14383;BME280;7275;50.328;8.720;2023-11-21T07:44:37;99415.97;;;14.99;53.86
14383;BME280;7275;50.328;8.720;2023-11-21T07:47:06;99417.41;;;15.04;53.76
14383;BME280;7275;50.328;8.720;2023-11-21T07:49:34;99414.66;;;15.06;53.81
14383;BME280;7275;50.328;8.720;2023-11-21T07:52:01;99413.59;;;15.08;53.73
14383;BME280;7275;50.328;8.720;2023-11-21T07:54:29;99418.84;;;15.10;53.59
14383;BME280;7275;50.328;8.720;2023-11-21T07:56:57;99421.41;;;15.11;53.62
14383;BME280;7275;50.328;8.720;2023-11-21T07:59:25;99427.59;;;15.12;53.57
14383;BME280;7275;50.328;8.720;2023-11-21T08:01:52;99423.97;;;15.13;53.65
14383;BME280;7275;50.328;8.720;2023-11-21T08:04:21;99434.47;;;15.16;53.61
14383;BME280;7275;50.328;8.720;2023-11-21T08:06:49;99439.69;;;15.17;53.59
14383;BME280;7275;50.328;8.720;2023-11-21T08:09:17;99443.97;;;15.20;53.49
14383;BME280;7275;50.328;8.720;2023-11-21T08:11:44;99445.50;;;15.24;53.45
14383;BME280;7275;50.328;8.720;2023-11-21T08:14:13;99449.88;;;15.25;53.39
14383;BME280;7275;50.328;8.720;2023-11-21T08:16:41;99446.38;;;15.25;53.30
14383;BME280;7275;50.328;8.720;2023-11-21T08:19:08;99460.50;;;15.25;53.17
14383;BME280;7275;50.328;8.720;2023-11-21T08:21:38;99458.81;;;15.24;53.25
14383;BME280;7275;50.328;8.720;2023-11-21T08:24:07;99466.91;;;15.23;53.21
14383;BME280;7275;50.328;8.720;2023-11-21T08:26:37;99465.06;;;15.23;53.04
14383;BME280;7275;50.328;8.720;2023-11-21T08:29:04;99472.31;;;15.21;53.02
14383;BME280;7275;50.328;8.720;2023-11-21T08:31:33;99474.41;;;15.16;53.06
14383;BME280;7275;50.328;8.720;2023-11-21T08:34:01;99476.38;;;15.12;53.01
14383;BME280;7275;50.328;8.720;2023-11-21T08:36:29;99475.59;;;15.10;53.10
14383;BME280;7275;50.328;8.720;2023-11-21T08:38:59;99478.09;;;15.13;53.03
14383;BME280;7275;50.328;8.720;2023-11-21T08:41:27;99482.44;;;15.14;53.01
14383;BME280;7275;50.328;8.720;2023-11-21T08:43:55;99482.13;;;15.20;53.18
14383;BME280;7275;50.328;8.720;2023-11-21T08:46:24;99489.44;;;15.31;53.15
14383;BME280;7275;50.328;8.720;2023-11-21T08:48:52;99487.97;;;15.41;53.16
14383;BME280;7275;50.328;8.720;2023-11-21T08:51:20;99491.59;;;15.54;53.01
14383;BME280;7275;50.328;8.720;2023-11-21T08:53:47;99492.13;;;15.75;53.25
14383;BME280;7275;50.328;8.720;2023-11-21T08:56:16;99492.03;;;16.19;53.36
14383;BME280;7275;50.328;8.720;2023-11-21T08:58:44;99487.97;;;16.81;53.83
14383;BME280;7275;50.328;8.720;2023-11-21T09:01:13;99496.09;;;17.58;53.55
14383;BME280;7275;50.328;8.720;2023-11-21T09:03:40;99485.75;;;18.52;52.85
14383;BME280;7275;50.328;8.720;2023-11-21T09:06:11;99476.97;;;19.67;51.86
14383;BME280;7275;50.328;8.720;2023-11-21T09:08:40;99480.94;;;20.83;49.81
14383;BME280;7275;50.328;8.720;2023-11-21T09:11:08;99476.13;;;21.91;47.25
14383;BME280;7275;50.328;8.720;2023-11-21T09:13:37;99469.53;;;22.94;45.72
14383;BME280;7275;50.328;8.720;2023-11-21T09:16:05;99472.72;;;23.93;44.21
14383;BME280;7275;50.328;8.720;2023-11-21T09:18:33;99478.16;;;24.84;42.63
14383;BME280;7275;50.328;8.720;2023-11-21T09:21:00;99492.16;;;25.68;40.61
14383;BME280;7275;50.328;8.720;2023-11-21T09:23:28;99482.56;;;26.25;39.73
14383;BME280;7275;50.328;8.720;2023-11-21T09:25:55;99492.00;;;26.88;38.45
14383;BME280;7275;50.328;8.720;2023-11-21T09:28:23;99491.94;;;27.54;37.07
14383;BME280;7275;50.328;8.720;2023-11-21T09:30:52;99493.41;;;28.21;36.11
14383;BME280;7275;50.328;8.720;2023-11-21T09:33:20;99494.84;;;28.64;35.19
14383;BME280;7275;50.328;8.720;2023-11-21T09:35:48;99495.63;;;29.03;33.61
14383;BME280;7275;50.328;8.720;2023-11-21T09:38:17;99503.63;;;29.35;32.68
14383;BME280;7275;50.328;8.720;2023-11-21T09:40:45;99498.56;;;29.69;31.85
14383;BME280;7275;50.328;8.720;2023-11-21T09:43:16;99498.41;;;30.08;31.51
14383;BME280;7275;50.328;8.720;2023-11-21T09:45:46;99507.38;;;30.46;31.01
14383;BME280;7275;50.328;8.720;2023-11-21T09:48:16;99504.53;;;30.83;30.55
14383;BME280;7275;50.328;8.720;2023-11-21T09:50:46;99504.75;;;31.17;29.66
14383;BME280;7275;50.328;8.720;2023-11-21T09:53:18;99502.41;;;31.50;29.50
14383;BME280;7275;50.328;8.720;2023-11-21T09:55:49;99505.53;;;31.68;28.07
14383;BME280;7275;50.328;8.720;2023-11-21T09:58:18;99508.97;;;31.98;28.06
14383;BME280;7275;50.328;8.720;2023-11-21T10:00:47;99505.28;;;32.12;27.73
14383;BME280;7275;50.328;8.720;2023-11-21T10:03:16;99511.03;;;32.23;27.38
14383;BME280;7275;50.328;8.720;2023-11-21T10:05:45;99510.09;;;32.44;27.48
14383;BME280;7275;50.328;8.720;2023-11-21T10:08:13;99510.19;;;32.51;27.08
14383;BME280;7275;50.328;8.720;2023-11-21T10:10:43;99516.59;;;32.64;26.19
14383;BME280;7275;50.328;8.720;2023-11-21T10:13:13;99509.25;;;32.78;26.28
14383;BME280;7275;50.328;8.720;2023-11-21T10:15:44;99514.06;;;33.03;25.73
14383;BME280;7275;50.328;8.720;2023-11-21T10:18:18;99525.09;;;33.23;25.99
14383;BME280;7275;50.328;8.720;2023-11-21T10:20:46;99527.22;;;33.41;25.11
14383;BME280;7275;50.328;8.720;2023-11-21T10:23:19;99522.06;;;33.05;25.11
14383;BME280;7275;50.328;8.720;2023-11-21T10:25:48;99516.28;;;32.53;25.53
14383;BME280;7275;50.328;8.720;2023-11-21T10:28:16;99528.72;;;32.27;25.73
14383;BME280;7275;50.328;8.720;2023-11-21T10:30:44;99534.53;;;32.11;25.83
14383;BME280;7275;50.328;8.720;2023-11-21T10:33:11;99538.19;;;32.53;25.83
14383;BME280;7275;50.328;8.720;2023-11-21T10:35:42;99533.91;;;33.12;25.23
14383;BME280;7275;50.328;8.720;2023-11-21T10:38:13;99538.16;;;33.34;25.52
14383;BME280;7275;50.328;8.720;2023-11-21T10:40:41;99533.03;;;33.12;24.97
14383;BME280;7275;50.328;8.720;2023-11-21T10:43:09;99542.25;;;32.63;24.56
14383;BME280;7275;50.328;8.720;2023-11-21T10:45:37;99538.63;;;32.01;24.89
14383;BME280;7275;50.328;8.720;2023-11-21T10:48:05;99546.53;;;31.32;25.48
14383;BME280;7275;50.328;8.720;2023-11-21T10:50:34;99551.69;;;30.62;25.88
14383;BME280;7275;50.328;8.720;2023-11-21T10:53:04;99546.38;;;29.80;26.27
14383;BME280;7275;50.328;8.720;2023-11-21T10:55:33;99550.75;;;29.05;27.04
14383;BME280;7275;50.328;8.720;2023-11-21T10:58:01;99541.97;;;28.40;27.49
14383;BME280;7275;50.328;8.720;2023-11-21T11:00:30;99549.50;;;27.82;28.61
14383;BME280;7275;50.328;8.720;2023-11-21T11:02:58;99544.50;;;27.29;29.16
14383;BME280;7275;50.328;8.720;2023-11-21T11:05:28;99548.94;;;26.80;29.34
14383;BME280;7275;50.328;8.720;2023-11-21T11:07:58;99552.59;;;26.37;30.35
14383;BME280;7275;50.328;8.720;2023-11-21T11:10:29;99553.16;;;25.97;31.01
14383;BME280;7275;50.328;8.720;2023-11-21T11:12:57;99556.94;;;25.61;31.21
14383;BME280;7275;50.328;8.720;2023-11-21T11:15:25;99567.41;;;25.29;31.44
14383;BME280;7275;50.328;8.720;2023-11-21T11:17:54;99564.19;;;24.98;32.11
14383;BME280;7275;50.328;8.720;2023-11-21T11:20:29;99557.34;;;24.77;32.54
14383;BME280;7275;50.328;8.720;2023-11-21T11:23:11;99558.09;;;24.59;32.64
14383;BME280;7275;50.328;8.720;2023-11-21T11:25:54;99562.03;;;24.38;33.19
14383;BME280;7275;50.328;8.720;2023-11-21T11:28:31;99554.16;;;24.17;33.18
14383;BME280;7275;50.328;8.720;2023-11-21T11:31:05;99554.84;;;24.00;33.63
14383;BME280;7275;50.328;8.720;2023-11-21T11:33:42;99557.72;;;23.89;33.72
14383;BME280;7275;50.328;8.720;2023-11-21T11:36:17;99557.75;;;23.79;33.91
14383;BME280;7275;50.328;8.720;2023-11-21T11:38:45;99556.88;;;23.60;33.96
14383;BME280;7275;50.328;8.720;2023-11-21T11:41:25;99559.31;;;23.34;34.38
14383;BME280;7275;50.328;8.720;2023-11-21T11:43:54;99568.34;;;23.04;34.94
14383;BME280;7275;50.328;8.720;2023-11-21T11:46:40;99566.53;;;22.75;35.32
14383;BME280;7275;50.328;8.720;2023-11-21T11:49:08;99568.81;;;22.49;35.52
14383;BME280;7275;50.328;8.720;2023-11-21T11:51:36;99573.69;;;22.25;36.00
14383;BME280;7275;50.328;8.720;2023-11-21T11:54:05;99571.97;;;22.03;36.09
14383;BME280;7275;50.328;8.720;2023-11-21T11:56:35;99569.63;;;21.89;36.48
14383;BME280;7275;50.328;8.720;2023-11-21T11:59:05;99578.38;;;21.82;36.99
14383;BME280;7275;50.328;8.720;2023-11-21T12:01:35;99579.84;;;21.75;36.83
14383;BME280;7275;50.328;8.720;2023-11-21T12:04:25;99572.19;;;21.59;37.24
14383;BME280;7275;50.328;8.720;2023-11-21T12:07:01;99574.34;;;21.44;37.45
14383;BME280;7275;50.328;8.720;2023-11-21T12:09:31;99576.09;;;21.34;38.02
14383;BME280;7275;50.328;8.720;2023-11-21T12:12:00;99583.94;;;21.26;38.04
14383;BME280;7275;50.328;8.720;2023-11-21T12:14:30;99584.09;;;21.14;38.19
14383;BME280;7275;50.328;8.720;2023-11-21T12:16:58;99584.88;;;21.05;38.39
14383;BME280;7275;50.328;8.720;2023-11-21T12:19:26;99587.03;;;21.00;38.41
14383;BME280;7275;50.328;8.720;2023-11-21T12:21:53;99586.44;;;20.96;38.69
14383;BME280;7275;50.328;8.720;2023-11-21T12:24:22;99584.13;;;20.92;38.60
14383;BME280;7275;50.328;8.720;2023-11-21T12:26:50;99588.16;;;20.86;38.75
14383;BME280;7275;50.328;8.720;2023-11-21T12:29:19;99594.28;;;20.77;38.85
14383;BME280;7275;50.328;8.720;2023-11-21T12:31:48;99596.75;;;20.69;38.75
14383;BME280;7275;50.328;8.720;2023-11-21T12:34:16;99598.94;;;20.64;39.00
14383;BME280;7275;50.328;8.720;2023-11-21T12:36:45;99607.25;;;20.61;39.04
14383;BME280;7275;50.328;8.720;2023-11-21T12:39:13;99605.66;;;20.58;39.34
14383;BME280;7275;50.328;8.720;2023-11-21T12:41:41;99604.81;;;20.58;39.16
14383;BME280;7275;50.328;8.720;2023-11-21T12:44:10;99603.22;;;20.55;39.45
14383;BME280;7275;50.328;8.720;2023-11-21T12:46:42;99610.41;;;20.55;39.51
14383;BME280;7275;50.328;8.720;2023-11-21T12:49:11;99609.94;;;20.50;39.29
14383;BME280;7275;50.328;8.720;2023-11-21T12:51:44;99612.38;;;20.42;39.55
14383;BME280;7275;50.328;8.720;2023-11-21T12:54:12;99622.09;;;20.32;39.62
14383;BME280;7275;50.328;8.720;2023-11-21T12:56:40;99620.03;;;20.24;39.55
14383;BME280;7275;50.328;8.720;2023-11-21T12:59:07;99628.75;;;20.15;39.75
14383;BME280;7275;50.328;8.720;2023-11-21T13:01:43;99622.53;;;20.04;39.92
14383;BME280;7275;50.328;8.720;2023-11-21T13:04:11;99627.63;;;19.96;40.18
14383;BME280;7275;50.328;8.720;2023-11-21T13:06:39;99621.34;;;19.84;40.23
14383;BME280;7275;50.328;8.720;2023-11-21T13:09:08;99626.56;;;19.74;40.33
14383;BME280;7275;50.328;8.720;2023-11-21T13:11:36;99622.75;;;19.66;40.41
14383;BME280;7275;50.328;8.720;2023-11-21T13:14:07;99620.66;;;19.58;40.70
14383;BME280;7275;50.328;8.720;2023-11-21T13:16:36;99627.34;;;19.53;40.83
14383;BME280;7275;50.328;8.720;2023-11-21T13:19:06;99627.69;;;19.48;41.01